AIC4DR VIDP-VISR
Flight info
| Callsign | AIC4DR |
|---|---|
| Flight time | 0h 55m |
| Altitude | 34000 |
| Route | SP W35 ONOGI DCT CHG/N0454F290 J79 KNG/N0455F340 DCT ATNUS W24 MESAR W22 SGR |
| Aircraft | A321/M-SDE3FGHIRWY/LB1 |
Departure
| Time | 2026-04-22 08:28 |
|---|---|
| Airport | Indira Gandhi International Airport (VIDP) |
Arrival
| Time | 2026-04-22 09:23 |
|---|---|
| Airport | Sheikh ul Alam International Airport (VISR) |
| Time | Latitude | Longitude | Altitude | Speed | Heading |
|---|---|---|---|---|---|
| 2026-04-22 08:01 | 28.55082 | 77.08958 | 751 ft | 0 kts | 241° |
| 2026-04-22 08:07 | 28.55088 | 77.08969 | 749 ft | 4 kts | 235° |
| 2026-04-22 08:07 | 28.55106 | 77.08989 | 748 ft | 4 kts | 197° |
| 2026-04-22 08:07 | 28.55126 | 77.08987 | 750 ft | 3 kts | 130° |
| 2026-04-22 08:07 | 28.55128 | 77.08985 | 747 ft | 1 kts | 128° |
| 2026-04-22 08:12 | 28.55125 | 77.08989 | 748 ft | 3 kts | 128° |
| 2026-04-22 08:12 | 28.55103 | 77.09020 | 748 ft | 6 kts | 129° |
| 2026-04-22 08:12 | 28.55075 | 77.09043 | 750 ft | 4 kts | 148° |
| 2026-04-22 08:12 | 28.55052 | 77.09059 | 748 ft | 4 kts | 148° |
| 2026-04-22 08:13 | 28.55015 | 77.09085 | 750 ft | 10 kts | 148° |
| 2026-04-22 08:13 | 28.54928 | 77.09145 | 747 ft | 19 kts | 149° |
| 2026-04-22 08:13 | 28.54811 | 77.09225 | 749 ft | 18 kts | 142° |
| 2026-04-22 08:13 | 28.54765 | 77.09343 | 750 ft | 15 kts | 104° |
| 2026-04-22 08:14 | 28.54739 | 77.09456 | 750 ft | 14 kts | 104° |
| 2026-04-22 08:14 | 28.54723 | 77.09526 | 750 ft | 13 kts | 104° |
| 2026-04-22 08:14 | 28.54697 | 77.09641 | 750 ft | 13 kts | 104° |
| 2026-04-22 08:14 | 28.54670 | 77.09758 | 751 ft | 18 kts | 105° |
| 2026-04-22 08:15 | 28.54633 | 77.09917 | 750 ft | 24 kts | 105° |
| 2026-04-22 08:15 | 28.54587 | 77.10115 | 751 ft | 26 kts | 104° |
| 2026-04-22 08:15 | 28.54543 | 77.10312 | 751 ft | 25 kts | 104° |
| 2026-04-22 08:15 | 28.54500 | 77.10500 | 751 ft | 24 kts | 104° |
| 2026-04-22 08:16 | 28.54454 | 77.10681 | 750 ft | 23 kts | 107° |
| 2026-04-22 08:16 | 28.54413 | 77.10849 | 751 ft | 18 kts | 105° |
| 2026-04-22 08:16 | 28.54400 | 77.10968 | 749 ft | 14 kts | 69° |
| 2026-04-22 08:16 | 28.54475 | 77.11015 | 751 ft | 12 kts | 15° |
| 2026-04-22 08:17 | 28.54553 | 77.11039 | 751 ft | 11 kts | 15° |
| 2026-04-22 08:17 | 28.54626 | 77.11062 | 750 ft | 11 kts | 15° |
| 2026-04-22 08:17 | 28.54721 | 77.11092 | 749 ft | 19 kts | 15° |
| 2026-04-22 08:17 | 28.54876 | 77.11139 | 749 ft | 28 kts | 15° |
| 2026-04-22 08:18 | 28.54982 | 77.11174 | 750 ft | 33 kts | 15° |
| 2026-04-22 08:18 | 28.55280 | 77.11265 | 748 ft | 33 kts | 14° |
| 2026-04-22 08:18 | 28.55422 | 77.11311 | 747 ft | 31 kts | 18° |
| 2026-04-22 08:18 | 28.55593 | 77.11366 | 748 ft | 24 kts | 15° |
| 2026-04-22 08:19 | 28.55721 | 77.11405 | 750 ft | 14 kts | 15° |
| 2026-04-22 08:19 | 28.55776 | 77.11379 | 750 ft | 7 kts | 280° |
| 2026-04-22 08:19 | 28.55795 | 77.11307 | 747 ft | 13 kts | 286° |
| 2026-04-22 08:19 | 28.55824 | 77.11177 | 746 ft | 21 kts | 284° |
| 2026-04-22 08:20 | 28.55871 | 77.11056 | 749 ft | 7 kts | 348° |
| 2026-04-22 08:20 | 28.55922 | 77.11072 | 746 ft | 10 kts | 354° |
| 2026-04-22 08:20 | 28.55960 | 77.10984 | 750 ft | 16 kts | 284° |
| 2026-04-22 08:20 | 28.55995 | 77.10833 | 747 ft | 23 kts | 285° |
| 2026-04-22 08:21 | 28.56041 | 77.10632 | 749 ft | 30 kts | 284° |
| 2026-04-22 08:21 | 28.56093 | 77.10402 | 751 ft | 31 kts | 284° |
| 2026-04-22 08:21 | 28.56152 | 77.10140 | 749 ft | 37 kts | 284° |
| 2026-04-22 08:21 | 28.56219 | 77.09844 | 749 ft | 38 kts | 284° |
| 2026-04-22 08:22 | 28.56287 | 77.09549 | 748 ft | 39 kts | 285° |
| 2026-04-22 08:22 | 28.56337 | 77.09338 | 748 ft | 16 kts | 285° |
| 2026-04-22 08:22 | 28.56427 | 77.09340 | 746 ft | 18 kts | 64° |
| 2026-04-22 08:22 | 28.56464 | 77.09497 | 751 ft | 23 kts | 76° |
| 2026-04-22 08:23 | 28.56559 | 77.09578 | 751 ft | 13 kts | 25° |
| 2026-04-22 08:23 | 28.56661 | 77.09633 | 748 ft | 20 kts | 22° |
| 2026-04-22 08:23 | 28.56807 | 77.09704 | 748 ft | 25 kts | 24° |
| 2026-04-22 08:23 | 28.56880 | 77.09792 | 749 ft | 15 kts | 90° |
| 2026-04-22 08:24 | 28.56878 | 77.09932 | 750 ft | 22 kts | 91° |
| 2026-04-22 08:24 | 28.56874 | 77.10138 | 748 ft | 30 kts | 91° |
| 2026-04-22 08:24 | 28.56868 | 77.10412 | 747 ft | 39 kts | 91° |
| 2026-04-22 08:24 | 28.56861 | 77.10748 | 750 ft | 45 kts | 91° |
| 2026-04-22 08:25 | 28.56853 | 77.11077 | 751 ft | 35 kts | 91° |
| 2026-04-22 08:25 | 28.56847 | 77.11344 | 750 ft | 29 kts | 91° |
| 2026-04-22 08:25 | 28.56843 | 77.11545 | 749 ft | 24 kts | 91° |
| 2026-04-22 08:25 | 28.56840 | 77.11718 | 751 ft | 11 kts | 89° |
| 2026-04-22 08:26 | 28.56874 | 77.11757 | 750 ft | 7 kts | 339° |
| 2026-04-22 08:26 | 28.56913 | 77.11733 | 746 ft | 6 kts | 330° |
| 2026-04-22 08:26 | 28.56951 | 77.11698 | 746 ft | 8 kts | 321° |
| 2026-04-22 08:26 | 28.56993 | 77.11649 | 750 ft | 9 kts | 298° |
| 2026-04-22 08:27 | 28.56998 | 77.11582 | 751 ft | 8 kts | 271° |
| 2026-04-22 08:27 | 28.56999 | 77.11489 | 749 ft | 29 kts | 271° |
| 2026-04-22 08:27 | 28.57010 | 77.10991 | 752 ft | 94 kts | 271° |
| 2026-04-22 08:27 | 28.57028 | 77.10045 | 750 ft | 143 kts | 271° |
| 2026-04-22 08:28 | 28.57059 | 77.08775 | 838 ft | 172 kts | 272° |
| 2026-04-22 08:28 | 28.57213 | 77.07447 | 1476 ft | 167 kts | 290° |
| 2026-04-22 08:28 | 28.57922 | 77.06424 | 2031 ft | 170 kts | 326° |
| 2026-04-22 08:28 | 28.59058 | 77.06125 | 2273 ft | 189 kts | 4° |
| 2026-04-22 08:29 | 28.60406 | 77.06522 | 2365 ft | 209 kts | 6° |
| 2026-04-22 08:29 | 28.61889 | 77.06592 | 2459 ft | 226 kts | 353° |
| 2026-04-22 08:29 | 28.63533 | 77.06269 | 2512 ft | 254 kts | 346° |
| 2026-04-22 08:29 | 28.65317 | 77.05791 | 2871 ft | 268 kts | 345° |
| 2026-04-22 08:30 | 28.67151 | 77.05317 | 3516 ft | 270 kts | 346° |
| 2026-04-22 08:30 | 28.68791 | 77.04963 | 4231 ft | 268 kts | 347° |
| 2026-04-22 08:30 | 28.70635 | 77.04619 | 4921 ft | 269 kts | 348° |
| 2026-04-22 08:30 | 28.72491 | 77.04309 | 5595 ft | 270 kts | 348° |
| 2026-04-22 08:31 | 28.74357 | 77.04016 | 6256 ft | 271 kts | 348° |
| 2026-04-22 08:31 | 28.76233 | 77.03730 | 6879 ft | 273 kts | 348° |
| 2026-04-22 08:31 | 28.80022 | 77.03137 | 8118 ft | 277 kts | 347° |
| 2026-04-22 08:32 | 28.81922 | 77.02757 | 8753 ft | 278 kts | 346° |
| 2026-04-22 08:32 | 28.83826 | 77.02336 | 9393 ft | 280 kts | 346° |
| 2026-04-22 08:32 | 28.85746 | 77.01898 | 9941 ft | 285 kts | 346° |
| 2026-04-22 08:32 | 28.87762 | 77.01435 | 10059 ft | 305 kts | 347° |
| 2026-04-22 08:33 | 28.89906 | 77.00947 | 10177 ft | 323 kts | 347° |
| 2026-04-22 08:33 | 28.92174 | 77.00436 | 10300 ft | 340 kts | 347° |
| 2026-04-22 08:33 | 28.94551 | 76.99906 | 10504 ft | 353 kts | 347° |
| 2026-04-22 08:33 | 28.96981 | 76.99370 | 10913 ft | 358 kts | 347° |
| 2026-04-22 08:34 | 28.99439 | 76.98829 | 11374 ft | 362 kts | 348° |
| 2026-04-22 08:34 | 29.01928 | 76.98281 | 11822 ft | 366 kts | 348° |
| 2026-04-22 08:34 | 29.04435 | 76.97728 | 12278 ft | 370 kts | 348° |
| 2026-04-22 08:34 | 29.06969 | 76.97170 | 12781 ft | 371 kts | 348° |
| 2026-04-22 08:35 | 29.09519 | 76.96607 | 13204 ft | 375 kts | 348° |
| 2026-04-22 08:35 | 29.12090 | 76.96038 | 13652 ft | 377 kts | 348° |
| 2026-04-22 08:35 | 29.14673 | 76.95467 | 14056 ft | 380 kts | 348° |
| 2026-04-22 08:35 | 29.17283 | 76.94890 | 14380 ft | 385 kts | 348° |
| 2026-04-22 08:36 | 29.19917 | 76.94305 | 14787 ft | 386 kts | 348° |
| 2026-04-22 08:36 | 29.22565 | 76.93711 | 15138 ft | 390 kts | 348° |
| 2026-04-22 08:36 | 29.25242 | 76.93113 | 15516 ft | 393 kts | 348° |
| 2026-04-22 08:36 | 29.27934 | 76.92516 | 15893 ft | 395 kts | 348° |
| 2026-04-22 08:37 | 29.30642 | 76.91917 | 16225 ft | 398 kts | 348° |
| 2026-04-22 08:37 | 29.33370 | 76.91314 | 16577 ft | 400 kts | 348° |
| 2026-04-22 08:37 | 29.36113 | 76.90705 | 16919 ft | 403 kts | 347° |
| 2026-04-22 08:37 | 29.38876 | 76.90088 | 17218 ft | 406 kts | 348° |
| 2026-04-22 08:38 | 29.41660 | 76.89465 | 17524 ft | 409 kts | 348° |
| 2026-04-22 08:38 | 29.44460 | 76.88838 | 17827 ft | 412 kts | 348° |
| 2026-04-22 08:38 | 29.47279 | 76.88207 | 18121 ft | 414 kts | 348° |
| 2026-04-22 08:38 | 29.50120 | 76.87575 | 18400 ft | 416 kts | 348° |
| 2026-04-22 08:39 | 29.52970 | 76.86941 | 18689 ft | 418 kts | 348° |
| 2026-04-22 08:39 | 29.55825 | 76.86307 | 19037 ft | 418 kts | 347° |
| 2026-04-22 08:39 | 29.58689 | 76.85669 | 19310 ft | 421 kts | 348° |
| 2026-04-22 08:39 | 29.61575 | 76.85022 | 19592 ft | 423 kts | 348° |
| 2026-04-22 08:40 | 29.64466 | 76.84373 | 19916 ft | 425 kts | 347° |
| 2026-04-22 08:40 | 29.67374 | 76.83719 | 20251 ft | 426 kts | 347° |
| 2026-04-22 08:40 | 29.70292 | 76.83063 | 20588 ft | 428 kts | 347° |
| 2026-04-22 08:40 | 29.73220 | 76.82405 | 20940 ft | 430 kts | 346° |
| 2026-04-22 08:41 | 29.76161 | 76.81744 | 21290 ft | 432 kts | 347° |
| 2026-04-22 08:41 | 29.79118 | 76.81080 | 21652 ft | 433 kts | 347° |
| 2026-04-22 08:41 | 29.82077 | 76.80417 | 22028 ft | 435 kts | 347° |
| 2026-04-22 08:41 | 29.85055 | 76.79751 | 22376 ft | 437 kts | 347° |
| 2026-04-22 08:42 | 29.88045 | 76.79081 | 22728 ft | 439 kts | 347° |
| 2026-04-22 08:42 | 29.91047 | 76.78407 | 23079 ft | 441 kts | 347° |
| 2026-04-22 08:42 | 29.94066 | 76.77725 | 23417 ft | 442 kts | 347° |
| 2026-04-22 08:42 | 29.97091 | 76.77039 | 23714 ft | 444 kts | 347° |
| 2026-04-22 08:43 | 30.00126 | 76.76351 | 24014 ft | 446 kts | 347° |
| 2026-04-22 08:43 | 30.03179 | 76.75661 | 24304 ft | 448 kts | 347° |
| 2026-04-22 08:43 | 30.06243 | 76.74972 | 24598 ft | 449 kts | 347° |
| 2026-04-22 08:43 | 30.09314 | 76.74278 | 24894 ft | 451 kts | 347° |
| 2026-04-22 08:44 | 30.12400 | 76.73577 | 25189 ft | 452 kts | 347° |
| 2026-04-22 08:44 | 30.15492 | 76.72877 | 25492 ft | 454 kts | 347° |
| 2026-04-22 08:44 | 30.18601 | 76.72174 | 25778 ft | 456 kts | 347° |
| 2026-04-22 08:44 | 30.21715 | 76.71468 | 26071 ft | 457 kts | 347° |
| 2026-04-22 08:45 | 30.24837 | 76.70761 | 26346 ft | 459 kts | 347° |
| 2026-04-22 08:45 | 30.27977 | 76.70049 | 26607 ft | 460 kts | 347° |
| 2026-04-22 08:45 | 30.31122 | 76.69338 | 26880 ft | 461 kts | 347° |
| 2026-04-22 08:45 | 30.34275 | 76.68624 | 27136 ft | 462 kts | 347° |
| 2026-04-22 08:46 | 30.37428 | 76.67907 | 27359 ft | 463 kts | 347° |
| 2026-04-22 08:46 | 30.40594 | 76.67186 | 27586 ft | 464 kts | 347° |
| 2026-04-22 08:46 | 30.43767 | 76.66463 | 27793 ft | 465 kts | 347° |
| 2026-04-22 08:46 | 30.46944 | 76.65739 | 27984 ft | 466 kts | 347° |
| 2026-04-22 08:47 | 30.50125 | 76.65014 | 28243 ft | 465 kts | 347° |
| 2026-04-22 08:47 | 30.53255 | 76.64301 | 28519 ft | 464 kts | 347° |
| 2026-04-22 08:47 | 30.56461 | 76.63571 | 28797 ft | 463 kts | 347° |
| 2026-04-22 08:47 | 30.59614 | 76.62854 | 29066 ft | 462 kts | 347° |
| 2026-04-22 08:48 | 30.62770 | 76.62133 | 29335 ft | 461 kts | 347° |
| 2026-04-22 08:48 | 30.65911 | 76.61416 | 29603 ft | 460 kts | 347° |
| 2026-04-22 08:48 | 30.69045 | 76.60703 | 29858 ft | 459 kts | 347° |
| 2026-04-22 08:48 | 30.72180 | 76.59988 | 30087 ft | 458 kts | 347° |
| 2026-04-22 08:49 | 30.75299 | 76.59274 | 30301 ft | 457 kts | 347° |
| 2026-04-22 08:49 | 30.78421 | 76.58556 | 30520 ft | 457 kts | 347° |
| 2026-04-22 08:49 | 30.81539 | 76.57838 | 30741 ft | 456 kts | 346° |
| 2026-04-22 08:49 | 30.84642 | 76.57123 | 31004 ft | 455 kts | 346° |
| 2026-04-22 08:50 | 30.87741 | 76.56410 | 31253 ft | 453 kts | 346° |
| 2026-04-22 08:50 | 30.90834 | 76.55696 | 31492 ft | 452 kts | 346° |
| 2026-04-22 08:50 | 30.93921 | 76.54986 | 31731 ft | 452 kts | 346° |
| 2026-04-22 08:50 | 30.96999 | 76.54281 | 31967 ft | 451 kts | 346° |
| 2026-04-22 08:51 | 31.00077 | 76.53574 | 32199 ft | 450 kts | 346° |
| 2026-04-22 08:51 | 31.03151 | 76.52868 | 32437 ft | 450 kts | 346° |
| 2026-04-22 08:51 | 31.06216 | 76.52162 | 32670 ft | 449 kts | 346° |
| 2026-04-22 08:51 | 31.09285 | 76.51453 | 32916 ft | 449 kts | 346° |
| 2026-04-22 08:52 | 31.12340 | 76.50745 | 33160 ft | 448 kts | 346° |
| 2026-04-22 08:52 | 31.15354 | 76.50047 | 33389 ft | 447 kts | 346° |
| 2026-04-22 08:52 | 31.18451 | 76.49331 | 33541 ft | 449 kts | 346° |
| 2026-04-22 08:52 | 31.21482 | 76.48630 | 33711 ft | 450 kts | 345° |
| 2026-04-22 08:53 | 31.24547 | 76.47920 | 33773 ft | 448 kts | 345° |
| 2026-04-22 08:53 | 31.30654 | 76.46500 | 33777 ft | 447 kts | 345° |
| 2026-04-22 08:54 | 31.36788 | 76.45076 | 33794 ft | 446 kts | 346° |
| 2026-04-22 08:54 | 31.42843 | 76.43675 | 33784 ft | 446 kts | 346° |
| 2026-04-22 08:55 | 31.48934 | 76.42263 | 33782 ft | 447 kts | 346° |
| 2026-04-22 08:55 | 31.55034 | 76.40838 | 33786 ft | 447 kts | 346° |
| 2026-04-22 08:56 | 31.61133 | 76.39409 | 33791 ft | 447 kts | 346° |
| 2026-04-22 08:56 | 31.67225 | 76.37989 | 33807 ft | 447 kts | 346° |
| 2026-04-22 08:57 | 31.73321 | 76.36559 | 33807 ft | 446 kts | 346° |
| 2026-04-22 08:57 | 31.79414 | 76.35136 | 33805 ft | 446 kts | 346° |
| 2026-04-22 08:58 | 31.85499 | 76.33702 | 33812 ft | 446 kts | 346° |
| 2026-04-22 08:58 | 31.91592 | 76.32277 | 33859 ft | 446 kts | 346° |
| 2026-04-22 08:59 | 31.97669 | 76.30852 | 33874 ft | 445 kts | 346° |
| 2026-04-22 08:59 | 32.03744 | 76.29421 | 33900 ft | 445 kts | 346° |
| 2026-04-22 09:00 | 32.09819 | 76.27997 | 33903 ft | 445 kts | 346° |
| 2026-04-22 09:00 | 32.15635 | 76.25742 | 33906 ft | 439 kts | 329° |
| 2026-04-22 09:01 | 32.19746 | 76.22243 | 33902 ft | 434 kts | 314° |
| 2026-04-22 09:01 | 32.23717 | 76.16900 | 33897 ft | 433 kts | 309° |
| 2026-04-22 09:02 | 32.27622 | 76.11483 | 33884 ft | 433 kts | 308° |
| 2026-04-22 09:02 | 32.31538 | 76.06047 | 33849 ft | 434 kts | 308° |
| 2026-04-22 09:03 | 32.35451 | 76.00609 | 33814 ft | 435 kts | 308° |
| 2026-04-22 09:03 | 32.39375 | 75.95149 | 33857 ft | 435 kts | 309° |
| 2026-04-22 09:04 | 32.43289 | 75.89698 | 33823 ft | 435 kts | 309° |
| 2026-04-22 09:04 | 32.47205 | 75.84231 | 33858 ft | 435 kts | 308° |
| 2026-04-22 09:05 | 32.51113 | 75.78765 | 33859 ft | 435 kts | 308° |
| 2026-04-22 09:05 | 32.55024 | 75.73287 | 33823 ft | 435 kts | 308° |
| 2026-04-22 09:06 | 32.58927 | 75.67807 | 33837 ft | 435 kts | 308° |
| 2026-04-22 09:06 | 32.60869 | 75.65073 | 33141 ft | 434 kts | 308° |
| 2026-04-22 09:06 | 32.62824 | 75.62316 | 32213 ft | 437 kts | 308° |
| 2026-04-22 09:06 | 32.64791 | 75.59550 | 31357 ft | 440 kts | 308° |
| 2026-04-22 09:07 | 32.66775 | 75.56763 | 30478 ft | 443 kts | 309° |
| 2026-04-22 09:07 | 32.68768 | 75.53961 | 29537 ft | 446 kts | 308° |
| 2026-04-22 09:07 | 32.70857 | 75.51207 | 28480 ft | 451 kts | 315° |
| 2026-04-22 09:07 | 32.73306 | 75.48854 | 27408 ft | 456 kts | 324° |
| 2026-04-22 09:08 | 32.76092 | 75.47014 | 26395 ft | 462 kts | 334° |
| 2026-04-22 09:08 | 32.79153 | 75.45762 | 25377 ft | 468 kts | 344° |
| 2026-04-22 09:08 | 32.82304 | 75.44807 | 24620 ft | 465 kts | 343° |
| 2026-04-22 09:08 | 32.85423 | 75.43837 | 23970 ft | 461 kts | 343° |
| 2026-04-22 09:09 | 32.88516 | 75.42857 | 23383 ft | 460 kts | 343° |
| 2026-04-22 09:09 | 32.91611 | 75.41863 | 22851 ft | 459 kts | 343° |
| 2026-04-22 09:09 | 32.94682 | 75.40878 | 22334 ft | 456 kts | 342° |
| 2026-04-22 09:09 | 32.97737 | 75.39902 | 21830 ft | 452 kts | 343° |
| 2026-04-22 09:10 | 33.00766 | 75.38939 | 21324 ft | 449 kts | 342° |
| 2026-04-22 09:10 | 33.03770 | 75.37985 | 20873 ft | 446 kts | 343° |
| 2026-04-22 09:10 | 33.06755 | 75.37037 | 20495 ft | 442 kts | 343° |
| 2026-04-22 09:10 | 33.09717 | 75.36093 | 20255 ft | 441 kts | 343° |
| 2026-04-22 09:11 | 33.12676 | 75.35146 | 19987 ft | 439 kts | 343° |
| 2026-04-22 09:11 | 33.15624 | 75.34205 | 19791 ft | 438 kts | 343° |
| 2026-04-22 09:11 | 33.18568 | 75.33266 | 19557 ft | 436 kts | 344° |
| 2026-04-22 09:11 | 33.21493 | 75.32333 | 19324 ft | 434 kts | 343° |
| 2026-04-22 09:12 | 33.24409 | 75.31401 | 19129 ft | 433 kts | 342° |
| 2026-04-22 09:12 | 33.27261 | 75.30490 | 18897 ft | 416 kts | 343° |
| 2026-04-22 09:12 | 33.30004 | 75.29616 | 18668 ft | 400 kts | 342° |
| 2026-04-22 09:12 | 33.32653 | 75.28773 | 18440 ft | 387 kts | 343° |
| 2026-04-22 09:13 | 33.35213 | 75.27956 | 18234 ft | 375 kts | 343° |
| 2026-04-22 09:13 | 33.37694 | 75.27163 | 17981 ft | 363 kts | 343° |
| 2026-04-22 09:13 | 33.40090 | 75.26394 | 17791 ft | 350 kts | 343° |
| 2026-04-22 09:13 | 33.42398 | 75.25653 | 17563 ft | 338 kts | 343° |
| 2026-04-22 09:14 | 33.44607 | 75.24940 | 17362 ft | 328 kts | 343° |
| 2026-04-22 09:14 | 33.46783 | 75.24241 | 17133 ft | 320 kts | 343° |
| 2026-04-22 09:14 | 33.48933 | 75.23549 | 16906 ft | 312 kts | 342° |
| 2026-04-22 09:14 | 33.50845 | 75.22564 | 16675 ft | 297 kts | 327° |
| 2026-04-22 09:15 | 33.52637 | 75.21238 | 16459 ft | 306 kts | 327° |
| 2026-04-22 09:15 | 33.54442 | 75.19904 | 16258 ft | 311 kts | 326° |
| 2026-04-22 09:15 | 33.56290 | 75.18544 | 16034 ft | 311 kts | 327° |
| 2026-04-22 09:15 | 33.58076 | 75.17230 | 16237 ft | 315 kts | 328° |
| 2026-04-22 09:16 | 33.59960 | 75.15841 | 16011 ft | 319 kts | 328° |
| 2026-04-22 09:16 | 33.61839 | 75.14457 | 15443 ft | 313 kts | 328° |
| 2026-04-22 09:16 | 33.63679 | 75.13102 | 15065 ft | 310 kts | 329° |
| 2026-04-22 09:16 | 33.65529 | 75.11737 | 14533 ft | 314 kts | 329° |
| 2026-04-22 09:17 | 33.67294 | 75.10434 | 14034 ft | 316 kts | 329° |
| 2026-04-22 09:17 | 33.69226 | 75.09005 | 13391 ft | 319 kts | 329° |
| 2026-04-22 09:17 | 33.71111 | 75.07610 | 12814 ft | 320 kts | 329° |
| 2026-04-22 09:17 | 33.73013 | 75.06203 | 12254 ft | 321 kts | 328° |
| 2026-04-22 09:18 | 33.74901 | 75.04762 | 11773 ft | 322 kts | 322° |
| 2026-04-22 09:18 | 33.76595 | 75.03001 | 11325 ft | 322 kts | 316° |
| 2026-04-22 09:18 | 33.78191 | 75.01171 | 10610 ft | 310 kts | 315° |
| 2026-04-22 09:18 | 33.79684 | 74.99385 | 9995 ft | 297 kts | 315° |
| 2026-04-22 09:19 | 33.81113 | 74.97654 | 9356 ft | 287 kts | 315° |
| 2026-04-22 09:19 | 33.82512 | 74.96003 | 8736 ft | 278 kts | 316° |
| 2026-04-22 09:19 | 33.83897 | 74.94423 | 8189 ft | 269 kts | 316° |
| 2026-04-22 09:19 | 33.85235 | 74.92921 | 8013 ft | 262 kts | 316° |
| 2026-04-22 09:20 | 33.86567 | 74.91402 | 7962 ft | 262 kts | 314° |
| 2026-04-22 09:20 | 33.87816 | 74.89915 | 7961 ft | 241 kts | 315° |
| 2026-04-22 09:20 | 33.88971 | 74.88577 | 7974 ft | 225 kts | 315° |
| 2026-04-22 09:20 | 33.90090 | 74.87294 | 7634 ft | 216 kts | 315° |
| 2026-04-22 09:21 | 33.91127 | 74.86106 | 7311 ft | 197 kts | 315° |
| 2026-04-22 09:21 | 33.92072 | 74.85021 | 7051 ft | 179 kts | 316° |
| 2026-04-22 09:21 | 33.92936 | 74.84028 | 6829 ft | 167 kts | 316° |
| 2026-04-22 09:21 | 33.93760 | 74.83082 | 6627 ft | 162 kts | 316° |
| 2026-04-22 09:22 | 33.94569 | 74.82152 | 6428 ft | 160 kts | 316° |
| 2026-04-22 09:22 | 33.95368 | 74.81234 | 6204 ft | 158 kts | 316° |
| 2026-04-22 09:22 | 33.96156 | 74.80324 | 5986 ft | 156 kts | 316° |
| 2026-04-22 09:22 | 33.96942 | 74.79436 | 5800 ft | 153 kts | 317° |
| 2026-04-22 09:23 | 33.97708 | 74.78558 | 5591 ft | 151 kts | 315° |
| 2026-04-22 09:23 | 33.98403 | 74.77748 | 5570 ft | 116 kts | 315° |
| 2026-04-22 09:23 | 33.98852 | 74.77219 | 5572 ft | 68 kts | 316° |
| 2026-04-22 09:23 | 33.99122 | 74.76907 | 5571 ft | 48 kts | 315° |
| 2026-04-22 09:24 | 33.99347 | 74.76640 | 5571 ft | 44 kts | 316° |
| 2026-04-22 09:24 | 33.99544 | 74.76413 | 5571 ft | 36 kts | 315° |
| 2026-04-22 09:24 | 33.99720 | 74.76204 | 5570 ft | 34 kts | 316° |
| 2026-04-22 09:24 | 33.99832 | 74.76090 | 5570 ft | 18 kts | 325° |
| 2026-04-22 09:25 | 33.99912 | 74.76052 | 5573 ft | 8 kts | 355° |
| 2026-04-22 09:25 | 33.99943 | 74.76056 | 5576 ft | 1 kts | 8° |
| 2026-04-22 09:25 | 33.99949 | 74.76057 | 5576 ft | 2 kts | 8° |
| 2026-04-22 09:25 | 33.99982 | 74.76062 | 5580 ft | 7 kts | 8° |
| 2026-04-22 09:26 | 34.00011 | 74.76069 | 5584 ft | 0 kts | 18° |
| 2026-04-22 09:26 | 34.00014 | 74.76071 | 5584 ft | 2 kts | 24° |
| 2026-04-22 09:27 | 34.00043 | 74.76075 | 5586 ft | 5 kts | 332° |
| 2026-04-22 09:27 | 34.00050 | 74.76069 | 5587 ft | 3 kts | 327° |
| 2026-04-22 09:27 | 34.00082 | 74.76055 | 5589 ft | 3 kts | 10° |
| 2026-04-22 09:27 | 34.00103 | 74.76070 | 5590 ft | 5 kts | 39° |
| 2026-04-22 09:28 | 34.00128 | 74.76102 | 5591 ft | 3 kts | 45° |
| 2026-04-22 09:28 | 34.00136 | 74.76112 | 5591 ft | 0 kts | 48° |
| 2026-04-22 09:28 | 34.00142 | 74.76119 | 5591 ft | 3 kts | 47° |
| 2026-04-22 09:28 | 34.00146 | 74.76125 | 5591 ft | 0 kts | 47° |